Time;durP1;ratioP1;P1;durP2;ratioP2;P2;SDS_P1;SDS_P2;PMS_P1;PMS_P2;Temp;Humidity;BMP_temperature;BMP_pressure;BME280_temperature;BME280_humidity;BME280_pressure;Samples;Min_cycle;Max_cycle;Signal;HPM_P1;HPM_P2
2022/01/19 00:01:38;;;;;;;2.40;2.00;;;22.60;47.90;;;;;;5071661;28;20192;-73
2022/01/19 00:04:04;;;;;;;2.47;2.05;;;22.60;47.90;;;;;;5071650;28;20185;-73
2022/01/19 00:06:30;;;;;;;2.60;2.13;;;22.60;47.80;;;;;;5054913;28;20209;-74
2022/01/19 00:08:57;;;;;;;2.38;2.10;;;22.60;47.90;;;;;;5071952;28;20223;-74
2022/01/19 00:11:23;;;;;;;2.88;2.00;;;22.60;47.80;;;;;;5054574;28;20182;-74
2022/01/19 00:13:50;;;;;;;2.90;2.35;;;22.60;47.70;;;;;;5054769;28;20272;-74
2022/01/19 00:16:17;;;;;;;2.25;2.05;;;22.60;47.80;;;;;;5054469;28;20276;-74
2022/01/19 00:18:44;;;;;;;2.35;2.00;;;22.60;47.80;;;;;;5069604;28;20224;-74
2022/01/19 00:21:10;;;;;;;2.35;2.15;;;22.60;47.70;;;;;;5053232;28;20189;-74
2022/01/19 00:23:36;;;;;;;2.40;2.20;;;22.60;47.70;;;;;;5055202;28;20198;-73
2022/01/19 00:26:02;;;;;;;2.28;2.00;;;22.60;47.70;;;;;;5071566;28;20209;-73
2022/01/19 00:28:28;;;;;;;3.15;2.10;;;22.60;47.70;;;;;;5072370;28;20202;-73
2022/01/19 00:30:56;;;;;;;2.92;2.08;;;22.60;47.70;;;;;;5071144;28;20182;-73
2022/01/19 00:33:23;;;;;;;4.32;2.38;;;22.60;47.60;;;;;;5072366;28;20181;-73
2022/01/19 00:35:49;;;;;;;2.50;2.22;;;22.60;47.70;;;;;;5070663;28;20192;-73
2022/01/19 00:38:16;;;;;;;2.30;2.00;;;22.60;47.70;;;;;;5070956;28;20251;-73
2022/01/19 00:40:43;;;;;;;2.38;1.92;;;22.60;47.70;;;;;;5070619;28;20278;-73
2022/01/19 00:43:09;;;;;;;2.97;2.08;;;22.60;47.70;;;;;;5054146;28;20212;-73
2022/01/19 00:45:35;;;;;;;3.47;2.28;;;22.60;47.70;;;;;;5053608;28;20221;-73
2022/01/19 00:48:01;;;;;;;2.47;2.03;;;22.60;47.70;;;;;;5054167;28;20194;-73
2022/01/19 00:50:29;;;;;;;2.13;1.88;;;22.60;47.70;;;;;;5054231;28;20289;-73
2022/01/19 00:52:57;;;;;;;1.80;1.70;;;22.60;47.70;;;;;;5054209;28;20651;-73
2022/01/19 00:55:26;;;;;;;1.85;1.75;;;22.60;47.70;;;;;;5070253;28;20185;-74
2022/01/19 00:57:53;;;;;;;2.00;1.80;;;22.60;47.70;;;;;;5054300;28;20208;-74
2022/01/19 01:00:27;;;;;;;2.10;1.90;;;22.60;47.60;;;;;;5053846;28;20273;-74
2022/01/19 01:02:54;;;;;;;2.80;2.17;;;22.50;47.60;;;;;;5071025;28;20193;-74
2022/01/19 01:05:22;;;;;;;2.25;1.83;;;22.60;47.60;;;;;;5070106;28;20204;-74
2022/01/19 01:07:48;;;;;;;2.30;2.10;;;22.60;47.60;;;;;;5070523;28;20221;-74
2022/01/19 01:10:17;;;;;;;2.63;2.10;;;22.60;47.60;;;;;;5053875;28;20192;-73
2022/01/19 01:12:52;;;;;;;2.40;2.20;;;22.60;47.60;;;;;;5054260;28;20186;-74
2022/01/19 01:15:48;;;;;;;2.80;2.35;;;22.60;47.50;;;;;;5070338;28;20200;-75
2022/01/19 01:18:20;;;;;;;2.47;2.00;;;22.60;47.50;;;;;;5054122;28;20292;-75
2022/01/19 01:20:55;;;;;;;2.22;1.70;;;22.50;47.60;;;;;;5054199;28;20177;-74
2022/01/19 01:23:24;;;;;;;3.10;2.25;;;22.60;47.60;;;;;;5054139;28;20193;-74
2022/01/19 01:25:53;;;;;;;1.90;1.70;;;22.50;47.60;;;;;;5053327;28;20213;-75
2022/01/19 01:28:21;;;;;;;1.75;1.65;;;22.50;47.50;;;;;;5053978;28;20237;-74
2022/01/19 01:30:48;;;;;;;2.10;1.92;;;22.60;47.60;;;;;;5070721;28;20235;-75
2022/01/19 01:33:14;;;;;;;1.85;1.63;;;22.60;47.60;;;;;;5053725;28;20185;-75
2022/01/19 01:35:41;;;;;;;2.20;2.00;;;22.50;47.40;;;;;;5053329;28;20173;-75
2022/01/19 01:38:08;;;;;;;2.40;1.95;;;22.50;47.40;;;;;;5053755;28;20265;-75
2022/01/19 01:40:36;;;;;;;3.67;2.35;;;22.50;47.40;;;;;;5055117;22;20233;-69
2022/01/19 01:43:06;;;;;;;2.45;2.17;;;22.50;47.30;;;;;;5017389;28;20208;-70
2022/01/19 01:45:35;;;;;;;2.42;2.17;;;22.60;47.40;;;;;;5016489;28;20587;-69
2022/01/19 01:48:09;;;;;;;3.92;2.20;;;22.60;47.40;;;;;;5013218;28;20226;-70
2022/01/19 01:53:33;;;;;;;1.70;1.60;;;22.50;47.40;;;;;;5013802;28;20715;-72
2022/01/19 01:56:16;;;;;;;2.35;2.15;;;22.60;47.50;;;;;;5013610;28;20191;-71
2022/01/19 01:58:46;;;;;;;2.03;1.77;;;22.50;47.40;;;;;;5014059;28;20210;-72
2022/01/19 02:01:35;;;;;;;2.30;2.00;;;22.50;47.30;;;;;;5022372;28;20191;-72
2022/01/19 02:04:07;;;;;;;2.65;2.33;;;22.50;47.30;;;;;;5013998;28;20187;-72
2022/01/19 02:06:48;;;;;;;4.15;2.85;;;22.50;47.20;;;;;;4997058;28;20223;-72
2022/01/19 02:09:26;;;;;;;2.45;2.25;;;22.50;47.30;;;;;;4998449;28;20231;-72
2022/01/19 02:24:18;;;;;;;2.78;2.00;;;22.50;47.20;;;;;;5024590;28;20211;-72
2022/01/19 02:42:42;;;;;;;2.50;2.00;;;22.50;47.10;;;;;;5035280;28;20183;-72
2022/01/19 02:50:27;;;;;;;2.67;1.90;;;22.50;47.20;;;;;;5033744;28;20229;-72
2022/01/19 02:52:53;;;;;;;3.33;2.30;;;22.50;47.10;;;;;;5017180;28;20190;-72
2022/01/19 02:55:19;;;;;;;2.55;2.35;;;22.50;47.10;;;;;;5016680;28;20179;-72
2022/01/19 02:57:46;;;;;;;2.58;2.22;;;22.50;47.00;;;;;;5016738;28;20191;-72
2022/01/19 03:08:44;;;;;;;2.75;1.70;;;22.50;47.00;;;;;;5034668;28;20575;-72
2022/01/19 03:11:18;;;;;;;1.73;1.63;;;22.50;47.10;;;;;;5007165;28;20187;-72
2022/01/19 03:13:47;;;;;;;3.00;1.90;;;22.50;47.10;;;;;;5033004;28;20183;-72
2022/01/19 03:16:13;;;;;;;3.65;2.40;;;22.50;47.00;;;;;;5016212;28;20187;-72
2022/01/19 03:18:39;;;;;;;2.72;2.15;;;22.50;47.00;;;;;;5032942;28;20302;-72
2022/01/19 03:21:06;;;;;;;3.15;2.70;;;22.50;47.00;;;;;;5033135;28;20251;-71
2022/01/19 03:23:33;;;;;;;2.53;2.33;;;22.50;46.90;;;;;;5032825;28;20289;-71
2022/01/19 03:26:05;;;;;;;2.50;2.30;;;22.50;46.90;;;;;;5015785;28;20215;-72
2022/01/19 03:28:31;;;;;;;2.50;2.30;;;22.50;46.90;;;;;;5029390;28;20249;-72
2022/01/19 03:30:57;;;;;;;2.50;2.30;;;22.50;46.90;;;;;;5045401;28;20179;-72
2022/01/19 03:33:23;;;;;;;2.72;2.45;;;22.50;46.90;;;;;;5023759;28;20179;-72
2022/01/19 03:35:49;;;;;;;2.60;2.40;;;22.50;46.90;;;;;;4999171;28;20187;-72
2022/01/19 03:38:15;;;;;;;2.55;2.35;;;22.50;46.90;;;;;;5016124;28;20212;-72
2022/01/19 03:40:41;;;;;;;2.83;2.05;;;22.50;46.90;;;;;;5007071;28;20230;-73
2022/01/19 03:43:07;;;;;;;2.70;1.98;;;22.50;46.90;;;;;;5010711;28;20284;-72
2022/01/19 03:46:02;;;;;;;2.30;2.00;;;22.50;46.90;;;;;;4995737;28;20223;-72
2022/01/19 03:48:36;;;;;;;2.10;1.90;;;22.50;46.90;;;;;;5012611;28;20251;-72
2022/01/19 03:51:03;;;;;;;2.17;1.98;;;22.50;46.90;;;;;;4996087;28;20183;-72
2022/01/19 03:53:29;;;;;;;2.78;2.10;;;22.50;46.90;;;;;;4995925;28;20195;-72
2022/01/19 03:55:56;;;;;;;2.53;2.10;;;22.50;46.90;;;;;;4995452;28;20184;-72
2022/01/19 03:58:22;;;;;;;2.50;2.20;;;22.50;46.90;;;;;;5012142;28;20214;-72
2022/01/19 04:00:53;;;;;;;2.55;2.28;;;22.50;46.90;;;;;;4979535;28;20208;-72
2022/01/19 04:03:27;;;;;;;2.40;2.20;;;22.50;46.80;;;;;;5013378;28;20271;-72
2022/01/19 04:08:18;;;;;;;3.92;2.15;;;22.50;46.70;;;;;;5031784;28;20203;-72
2022/01/19 04:10:44;;;;;;;2.33;2.00;;;22.50;46.80;;;;;;5015278;28;20183;-72
2022/01/19 04:13:33;;;;;;;2.67;2.47;;;22.50;46.80;;;;;;5014878;28;20187;-72
2022/01/19 04:15:59;;;;;;;2.08;1.75;;;22.50;46.80;;;;;;5029061;28;20183;-72
2022/01/19 04:18:25;;;;;;;1.85;1.70;;;22.50;46.80;;;;;;5014910;28;20264;-72
2022/01/19 04:20:52;;;;;;;2.15;1.98;;;22.50;46.90;;;;;;4998855;28;20191;-72
2022/01/19 04:23:21;;;;;;;2.88;1.92;;;22.50;46.80;;;;;;5006704;28;20239;-72
2022/01/19 04:25:48;;;;;;;3.05;2.00;;;22.50;46.80;;;;;;5034120;28;20214;-72
2022/01/19 04:28:14;;;;;;;1.52;1.42;;;22.50;46.80;;;;;;5034619;28;20198;-72
2022/01/19 04:30:44;;;;;;;2.15;2.03;;;22.50;46.80;;;;;;5034504;28;20722;-72
2022/01/19 04:33:18;;;;;;;2.00;1.80;;;22.50;46.80;;;;;;5034314;28;20199;-72
2022/01/19 04:35:50;;;;;;;1.90;1.80;;;22.50;46.70;;;;;;5017484;28;20208;-72
2022/01/19 05:09:07;;;;;;;2.28;2.13;;;22.50;46.60;;;;;;5014148;28;20199;-72
2022/01/19 05:13:52;;;;;;;2.72;2.40;;;22.50;46.60;;;;;;5014477;28;20175;-72
2022/01/19 05:16:23;;;;;;;2.17;1.98;;;22.50;46.60;;;;;;4998076;28;20191;-72
2022/01/19 05:18:51;;;;;;;2.17;1.98;;;22.50;46.60;;;;;;5014476;28;20214;-72
2022/01/19 05:21:18;;;;;;;2.30;2.05;;;22.50;46.70;;;;;;4998351;28;20190;-72
2022/01/19 05:24:06;;;;;;;2.10;1.85;;;22.50;46.60;;;;;;5032184;28;20206;-72
2022/01/19 05:26:37;;;;;;;2.47;1.80;;;22.50;46.60;;;;;;5014479;28;20210;-72
2022/01/19 05:29:04;;;;;;;1.80;1.70;;;22.50;46.60;;;;;;5031149;28;20203;-72
2022/01/19 05:31:30;;;;;;;2.35;2.15;;;22.50;46.60;;;;;;5014688;28;20179;-72
2022/01/19 05:33:56;;;;;;;1.80;1.65;;;22.50;46.60;;;;;;4998460;28;20186;-72
2022/01/19 05:36:23;;;;;;;2.90;1.88;;;22.50;46.60;;;;;;5031058;28;20244;-72
2022/01/19 05:39:09;;;;;;;2.63;2.40;;;22.50;46.60;;;;;;5000967;28;20219;-72
2022/01/19 05:41:54;;;;;;;2.60;2.33;;;22.50;46.60;;;;;;5020526;28;20726;-72
2022/01/19 05:44:20;;;;;;;2.63;2.42;;;22.50;46.60;;;;;;5030740;28;20194;-71
2022/01/19 05:46:47;;;;;;;2.33;2.13;;;22.50;46.60;;;;;;5014693;28;20211;-72
2022/01/19 05:49:13;;;;;;;3.17;1.90;;;22.50;46.60;;;;;;5018128;28;20256;-72
2022/01/19 05:51:39;;;;;;;2.22;2.03;;;22.50;46.60;;;;;;5035364;28;20269;-72
2022/01/19 05:54:06;;;;;;;2.00;1.67;;;22.50;46.60;;;;;;5002179;28;20183;-72
2022/01/19 05:56:32;;;;;;;1.98;1.88;;;22.50;46.60;;;;;;5018131;28;20187;-71
2022/01/19 05:59:16;;;;;;;2.13;2.00;;;22.50;46.60;;;;;;5004162;28;20233;-71
2022/01/19 06:01:42;;;;;;;2.03;1.80;;;22.50;46.60;;;;;;5002020;28;20184;-71
2022/01/19 06:04:09;;;;;;;2.20;2.00;;;22.50;46.60;;;;;;5015881;28;20214;-71
2022/01/19 06:06:56;;;;;;;2.47;2.25;;;22.40;46.40;;;;;;5028799;28;20234;-71
2022/01/19 06:12:07;;;;;;;2.65;2.42;;;22.50;46.60;;;;;;5037413;28;20210;-71
2022/01/19 06:14:36;;;;;;;2.70;2.50;;;22.50;46.60;;;;;;5001889;28;20187;-71
2022/01/19 06:17:06;;;;;;;2.90;2.60;;;22.50;46.50;;;;;;5018003;28;20180;-70
2022/01/19 06:19:33;;;;;;;2.38;2.20;;;22.50;46.50;;;;;;5018036;28;20254;-71
2022/01/19 06:22:00;;;;;;;2.05;1.80;;;22.50;46.60;;;;;;5001863;28;20256;-71
2022/01/19 06:24:27;;;;;;;2.25;1.80;;;22.50;46.60;;;;;;5019540;28;20187;-70
2022/01/19 06:26:54;;;;;;;1.98;1.88;;;22.50;46.60;;;;;;5032917;28;20200;-71
2022/01/19 06:29:20;;;;;;;1.90;1.80;;;22.50;46.60;;;;;;5033805;28;20201;-71
2022/01/19 06:31:45;;;;;;;2.30;1.95;;;22.40;46.40;;;;;;5019850;28;20266;-71
2022/01/19 06:34:13;;;;;;;2.13;1.90;;;22.50;46.50;;;;;;5033713;28;20179;-70
2022/01/19 06:36:59;;;;;;;2.50;2.30;;;22.50;46.50;;;;;;5004085;28;20191;-71
2022/01/19 06:39:33;;;;;;;2.50;2.30;;;22.50;46.50;;;;;;5032551;28;20206;-71
2022/01/19 06:42:06;;;;;;;2.55;2.35;;;22.50;46.50;;;;;;4999734;28;20186;-71
2022/01/19 06:44:32;;;;;;;3.15;2.85;;;22.50;46.50;;;;;;5000435;28;20183;-70
2022/01/19 06:46:58;;;;;;;2.78;2.58;;;22.50;46.40;;;;;;5000470;28;20207;-71
2022/01/19 06:49:24;;;;;;;3.03;2.42;;;22.50;46.50;;;;;;5001104;28;20703;-71
2022/01/19 06:51:50;;;;;;;2.80;2.60;;;22.50;46.40;;;;;;5000832;28;20190;-71
2022/01/19 06:54:16;;;;;;;3.28;2.83;;;22.50;46.50;;;;;;5000382;28;20179;-71
2022/01/19 06:56:42;;;;;;;2.40;2.20;;;22.50;46.50;;;;;;5000390;28;20187;-71
2022/01/19 06:59:34;;;;;;;1.83;1.73;;;22.40;46.30;;;;;;5010468;28;20223;-71
2022/01/19 07:02:06;;;;;;;2.20;2.00;;;22.50;46.50;;;;;;5001426;28;20182;-69
2022/01/19 07:04:49;;;;;;;1.90;1.80;;;22.50;46.50;;;;;;5034359;28;20704;-70
2022/01/19 07:07:22;;;;;;;2.10;2.00;;;22.40;46.30;;;;;;5016977;28;20211;-71
2022/01/19 07:09:59;;;;;;;2.63;2.42;;;22.40;46.30;;;;;;5018088;28;20182;-70
2022/01/19 07:12:29;;;;;;;3.22;2.88;;;22.50;46.40;;;;;;5032956;28;20176;-70
2022/01/19 07:14:55;;;;;;;3.13;2.70;;;22.50;46.40;;;;;;5016332;28;20245;-70
2022/01/19 07:17:21;;;;;;;3.05;2.80;;;22.50;46.50;;;;;;5016736;28;20184;-70
2022/01/19 07:19:48;;;;;;;2.50;2.30;;;22.40;46.30;;;;;;5016483;28;20200;-71
2022/01/19 07:22:15;;;;;;;3.20;3.00;;;22.50;46.40;;;;;;5032608;28;20190;-71
2022/01/19 07:24:42;;;;;;;2.53;2.30;;;22.40;46.30;;;;;;5032228;28;20192;-71
2022/01/19 07:27:09;;;;;;;2.53;2.33;;;22.50;46.40;;;;;;5032414;28;20211;-71
2022/01/19 07:29:35;;;;;;;2.50;2.30;;;22.50;46.40;;;;;;5015995;28;20203;-72
2022/01/19 07:32:01;;;;;;;2.58;2.35;;;22.50;46.40;;;;;;5032572;28;20207;-72
2022/01/19 07:34:29;;;;;;;2.47;2.28;;;22.40;46.30;;;;;;5015704;28;20190;-72
2022/01/19 07:36:56;;;;;;;2.20;1.85;;;22.50;46.40;;;;;;5032399;28;20567;-72
2022/01/19 07:39:23;;;;;;;1.90;1.80;;;22.50;46.40;;;;;;5032432;28;20262;-72
2022/01/19 07:41:53;;;;;;;2.00;1.80;;;22.50;47.00;;;;;;5069548;22;20227;-69
2022/01/19 07:44:39;;;;;;;2.33;2.10;;;22.50;46.40;;;;;;5031017;28;20197;-69
2022/01/19 07:47:28;;;;;;;3.13;2.92;;;22.50;46.30;;;;;;5056744;28;20209;-69
2022/01/19 07:50:09;;;;;;;3.10;2.90;;;22.50;46.30;;;;;;5035679;28;20182;-69
2022/01/19 07:52:53;;;;;;;2.97;2.78;;;22.50;46.30;;;;;;5027745;28;20201;-70
2022/01/19 07:55:23;;;;;;;2.38;2.17;;;22.40;46.20;;;;;;5019511;28;20194;-70
2022/01/19 07:57:52;;;;;;;2.10;2.00;;;22.40;46.20;;;;;;5011584;28;20270;-69
2022/01/19 08:00:38;;;;;;;2.33;2.13;;;22.50;46.30;;;;;;5001790;28;20199;-69
2022/01/19 08:03:39;;;;;;;2.60;2.40;;;22.50;46.30;;;;;;5014892;28;20210;-69
2022/01/19 08:06:13;;;;;;;3.67;3.08;;;22.50;46.20;;;;;;5034351;28;20214;-69
2022/01/19 08:08:39;;;;;;;3.33;3.03;;;22.40;46.00;;;;;;5035868;28;20181;-69
2022/01/19 08:11:05;;;;;;;3.25;2.95;;;22.50;46.20;;;;;;5016681;28;20194;-70
2022/01/19 08:13:35;;;;;;;3.25;3.03;;;22.50;46.10;;;;;;5024220;28;20178;-69
2022/01/19 08:16:02;;;;;;;3.67;3.20;;;22.50;46.10;;;;;;4999233;28;20281;-69
2022/01/19 08:18:30;;;;;;;3.95;3.65;;;22.50;46.10;;;;;;5004188;28;20228;-69
2022/01/19 08:20:56;;;;;;;2.47;2.28;;;22.50;46.10;;;;;;5031986;28;20213;-70
2022/01/19 08:23:26;;;;;;;1.98;1.70;;;22.50;46.80;;;;;;5015630;28;20195;-70
2022/01/19 08:25:55;;;;;;;2.35;2.15;;;22.50;46.20;;;;;;4999047;28;20217;-69
2022/01/19 08:28:21;;;;;;;3.08;2.05;;;22.50;46.20;;;;;;5017197;28;20266;-69
2022/01/19 08:30:48;;;;;;;1.85;1.75;;;22.50;46.20;;;;;;5028666;28;20194;-70
2022/01/19 08:33:23;;;;;;;1.95;1.85;;;22.50;46.10;;;;;;5035142;28;20193;-70
2022/01/19 08:35:54;;;;;;;2.17;2.08;;;22.40;46.00;;;;;;5035172;28;20193;-69
2022/01/19 08:38:40;;;;;;;2.38;2.28;;;22.50;46.10;;;;;;5026537;28;20229;-69
2022/01/19 08:41:10;;;;;;;3.05;2.70;;;22.50;46.10;;;;;;5027439;28;20249;-69
2022/01/19 08:43:38;;;;;;;3.00;2.80;;;22.40;46.00;;;;;;5044587;28;20213;-69
2022/01/19 08:46:05;;;;;;;2.95;2.72;;;22.50;46.10;;;;;;5018646;28;20198;-69
2022/01/19 08:48:50;;;;;;;2.83;2.63;;;22.50;46.10;;;;;;5037197;28;20681;-69
2022/01/19 08:51:39;;;;;;;2.05;1.67;;;22.50;46.10;;;;;;5024666;28;20253;-70
2022/01/19 08:54:15;;;;;;;1.85;1.75;;;22.50;46.10;;;;;;5000365;28;20175;-69
2022/01/19 08:56:54;;;;;;;2.20;2.00;;;22.50;46.10;;;;;;5031534;28;20191;-69
2022/01/19 08:59:21;;;;;;;2.10;2.00;;;22.50;46.10;;;;;;5023409;28;20207;-70
2022/01/19 09:01:46;;;;;;;2.70;1.90;;;22.40;45.90;;;;;;5008600;28;20202;-70
2022/01/19 09:04:12;;;;;;;1.77;1.67;;;22.50;46.10;;;;;;5024421;28;20191;-69
2022/01/19 09:06:38;;;;;;;2.08;1.98;;;22.40;46.00;;;;;;5018321;28;20212;-69
2022/01/19 09:09:04;;;;;;;2.58;2.38;;;22.50;46.00;;;;;;5020907;28;20217;-69
2022/01/19 09:11:30;;;;;;;2.53;2.33;;;22.50;46.00;;;;;;5028576;28;20226;-68
2022/01/19 09:13:56;;;;;;;3.28;2.97;;;22.40;45.90;;;;;;5010229;28;20285;-69
2022/01/19 09:16:21;;;;;;;2.60;2.40;;;22.50;46.00;;;;;;5014316;28;20198;-68
2022/01/19 09:18:47;;;;;;;2.30;2.10;;;22.50;46.00;;;;;;5021755;28;20239;-68
2022/01/19 09:21:13;;;;;;;3.25;2.95;;;22.50;46.00;;;;;;5015318;28;20218;-68
2022/01/19 09:23:39;;;;;;;2.70;2.50;;;22.50;46.00;;;;;;5028809;28;20194;-68
2022/01/19 09:26:05;;;;;;;3.15;2.95;;;22.50;46.00;;;;;;5032793;28;20217;-69
2022/01/19 09:28:31;;;;;;;2.47;2.22;;;22.40;45.90;;;;;;5003303;28;20175;-67
2022/01/19 09:31:00;;;;;;;2.47;2.28;;;22.50;46.60;;;;;;5001500;28;20218;-68
2022/01/19 09:33:30;;;;;;;2.13;1.92;;;22.40;45.90;;;;;;5032627;28;20241;-68
2022/01/19 09:38:29;;;;;;;2.45;1.80;;;22.50;46.00;;;;;;5028508;28;20287;-68
2022/01/19 09:40:57;;;;;;;1.90;1.80;;;22.40;46.00;;;;;;5006823;28;20245;-68
2022/01/19 09:43:24;;;;;;;2.00;1.90;;;22.40;45.90;;;;;;5014862;28;20198;-68
2022/01/19 09:45:56;;;;;;;1.88;1.77;;;22.50;46.00;;;;;;5014210;28;20215;-69
2022/01/19 09:48:24;;;;;;;1.70;1.60;;;22.50;46.00;;;;;;5030187;28;20183;-68
2022/01/19 09:50:50;;;;;;;1.80;1.70;;;22.50;46.00;;;;;;5023358;28;20207;-68
2022/01/19 09:53:16;;;;;;;2.13;1.90;;;22.50;46.00;;;;;;5014507;28;20226;-68
2022/01/19 09:55:44;;;;;;;2.15;1.95;;;22.50;46.00;;;;;;5013874;28;20179;-68
2022/01/19 09:58:10;;;;;;;2.75;2.55;;;22.50;46.00;;;;;;4999896;28;20195;-68
2022/01/19 10:00:36;;;;;;;2.53;2.33;;;22.50;46.00;;;;;;5024994;28;20264;-68
2022/01/19 10:03:26;;;;;;;3.47;2.60;;;22.50;46.00;;;;;;5031969;28;20179;-68
2022/01/19 10:05:55;;;;;;;2.88;2.05;;;22.50;46.00;;;;;;5028869;28;20696;-68
2022/01/19 10:08:47;;;;;;;2.75;2.55;;;22.50;46.00;;;;;;5031067;28;20210;-68
2022/01/19 10:17:07;;;;;;;2.58;2.38;;;22.50;45.90;;;;;;5031999;28;20237;-68
2022/01/19 10:19:43;;;;;;;2.70;2.50;;;22.50;46.00;;;;;;5006106;28;20285;-68
2022/01/19 10:22:14;;;;;;;2.38;2.17;;;22.50;46.00;;;;;;5027835;28;20211;-68
2022/01/19 10:24:50;;;;;;;2.45;2.25;;;22.50;46.00;;;;;;5013882;28;20283;-67
2022/01/19 10:27:39;;;;;;;1.80;1.70;;;22.50;46.00;;;;;;5019754;28;20293;-68
2022/01/19 10:30:04;;;;;;;2.10;1.90;;;22.50;45.90;;;;;;5040982;28;20198;-69
2022/01/19 10:32:36;;;;;;;1.88;1.45;;;22.60;46.00;;;;;;5033808;28;20190;-68
2022/01/19 10:35:25;;;;;;;1.77;1.67;;;22.50;45.90;;;;;;5037272;28;20187;-69
2022/01/19 10:38:16;;;;;;;1.90;1.77;;;22.50;45.90;;;;;;5037188;28;20247;-68
2022/01/19 10:40:57;;;;;;;2.83;2.55;;;22.60;46.00;;;;;;5031916;28;20249;-69
2022/01/19 10:43:31;;;;;;;2.58;2.28;;;22.50;45.90;;;;;;5041812;28;20206;-69
2022/01/19 10:46:00;;;;;;;1.88;1.77;;;22.60;46.00;;;;;;5017293;28;20215;-69
2022/01/19 10:48:39;;;;;;;2.10;1.90;;;22.50;45.90;;;;;;5029619;28;20178;-68
2022/01/19 10:51:14;;;;;;;2.00;1.90;;;22.60;46.00;;;;;;5031671;28;20206;-68
2022/01/19 10:53:47;;;;;;;1.92;1.83;;;22.60;45.90;;;;;;5017525;28;20257;-68
2022/01/19 10:56:30;;;;;;;2.35;1.98;;;22.60;46.20;;;;;;5016626;28;20274;-67
2022/01/19 10:59:02;;;;;;;2.50;2.30;;;22.50;45.80;;;;;;5006150;28;20183;-68
2022/01/19 11:01:47;;;;;;;2.50;2.30;;;22.60;45.90;;;;;;5037206;28;20213;-68
2022/01/19 11:04:27;;;;;;;2.45;2.25;;;22.60;45.90;;;;;;5020414;28;20186;-68
2022/01/19 11:06:58;;;;;;;1.85;1.75;;;22.60;45.90;;;;;;5028855;28;20261;-66
2022/01/19 11:09:27;;;;;;;1.80;1.70;;;22.60;46.00;;;;;;5009228;28;20279;-66
2022/01/19 11:12:06;;;;;;;1.65;1.52;;;22.60;46.00;;;;;;5028329;28;20206;-66
2022/01/19 11:14:35;;;;;;;1.75;1.65;;;22.60;46.00;;;;;;5004343;28;20630;-66
2022/01/19 11:17:02;;;;;;;1.75;1.65;;;22.60;45.90;;;;;;5018314;28;20220;-65
2022/01/19 11:19:28;;;;;;;1.85;1.75;;;22.60;45.90;;;;;;5000802;28;20187;-65
2022/01/19 11:22:38;;;;;;;2.47;1.83;;;22.60;46.50;;;;;;5016694;28;20218;-65
2022/01/19 11:25:50;;;;;;;2.55;2.35;;;22.60;45.90;;;;;;5016597;28;20203;-66
2022/01/19 11:28:39;;;;;;;1.83;1.70;;;22.60;45.90;;;;;;5018942;28;20186;-66
2022/01/19 11:31:12;;;;;;;2.03;1.85;;;22.60;45.90;;;;;;5032987;28;20215;-66
2022/01/19 11:33:52;;;;;;;1.90;1.80;;;22.60;45.90;;;;;;5016397;28;20229;-67
2022/01/19 11:36:33;;;;;;;2.25;2.05;;;22.60;45.80;;;;;;5023489;28;20202;-67
2022/01/19 11:39:23;;;;;;;2.53;2.33;;;22.60;45.90;;;;;;5023637;28;20179;-66
2022/01/19 11:42:01;;;;;;;2.75;2.53;;;22.60;46.00;;;;;;5023437;28;20229;-66
2022/01/19 11:44:33;;;;;;;2.00;1.90;;;22.60;45.90;;;;;;5010769;28;20189;-67
2022/01/19 11:47:25;;;;;;;2.20;2.00;;;22.60;45.90;;;;;;5000430;28;20199;-66
2022/01/19 11:50:09;;;;;;;2.30;2.00;;;22.60;45.80;;;;;;5019658;28;20175;-66
2022/01/19 11:52:38;;;;;;;2.83;2.58;;;22.60;45.80;;;;;;5013552;28;20184;-66
2022/01/19 11:55:20;;;;;;;3.10;2.90;;;22.60;45.80;;;;;;5018374;28;20195;-66
2022/01/19 11:57:49;;;;;;;2.90;2.70;;;22.60;45.80;;;;;;5032180;28;20218;-66
2022/01/19 12:00:21;;;;;;;3.15;2.85;;;22.70;45.90;;;;;;5023447;28;20573;-66
2022/01/19 12:02:58;;;;;;;3.38;3.08;;;22.60;45.90;;;;;;5016153;28;20191;-65
2022/01/19 12:05:26;;;;;;;2.83;2.55;;;22.60;45.80;;;;;;5022583;28;20195;-66
2022/01/19 12:08:17;;;;;;;2.30;2.10;;;22.70;45.90;;;;;;5015045;28;20270;-65
2022/01/19 12:10:47;;;;;;;2.30;2.10;;;22.60;45.80;;;;;;5024793;28;20293;-65
2022/01/19 12:14:18;;;;;;;2.50;2.30;;;22.60;45.70;;;;;;5025419;28;20210;-66
2022/01/19 12:19:07;;;;;;;3.03;2.72;;;22.60;45.90;;;;;;5031542;28;20182;-65
2022/01/19 12:21:39;;;;;;;5.38;2.47;;;22.70;45.90;;;;;;4999245;28;20207;-66
2022/01/19 12:24:14;;;;;;;4.13;1.70;;;22.60;49.10;;;;;;5033103;28;20195;-66
2022/01/19 12:27:00;;;;;;;4.43;1.80;;;22.70;51.10;;;;;;5021077;28;20709;-66
2022/01/19 12:29:38;;;;;;;5.43;2.10;;;22.80;51.80;;;;;;5025063;28;20188;-66
2022/01/19 12:32:05;;;;;;;4.30;1.80;;;22.90;52.00;;;;;;5044677;28;20206;-66
2022/01/19 12:34:51;;;;;;;3.17;1.70;;;22.90;52.20;;;;;;5018566;28;20234;-66
2022/01/19 12:37:38;;;;;;;3.70;1.65;;;22.90;52.10;;;;;;5018799;28;20223;-67
2022/01/19 12:40:21;;;;;;;5.30;2.25;;;22.90;52.00;;;;;;5018845;28;20197;-66
2022/01/19 12:42:54;;;;;;;2.25;2.03;;;22.90;52.10;;;;;;5010686;28;20187;-66
2022/01/19 12:45:32;;;;;;;4.45;1.60;;;22.90;52.30;;;;;;4998897;28;20210;-66
2022/01/19 12:47:59;;;;;;;3.22;1.50;;;23.00;52.40;;;;;;5015760;28;20175;-66
2022/01/19 12:50:28;;;;;;;2.08;1.40;;;22.90;52.40;;;;;;4998793;28;20207;-66
2022/01/19 12:53:00;;;;;;;2.55;1.45;;;23.00;52.40;;;;;;4998935;28;20244;-66
2022/01/19 12:55:32;;;;;;;5.15;1.58;;;22.90;52.20;;;;;;5014795;28;20180;-66
2022/01/19 12:57:59;;;;;;;2.67;1.65;;;23.00;51.90;;;;;;5014825;28;20278;-66
2022/01/19 13:00:31;;;;;;;4.88;1.90;;;23.00;51.90;;;;;;5015163;28;20210;-66
2022/01/19 13:02:57;;;;;;;2.90;2.22;;;23.00;52.20;;;;;;5015149;28;20232;-66
2022/01/19 13:05:28;;;;;;;1.88;1.60;;;23.00;52.00;;;;;;5014866;28;20646;-67
2022/01/19 13:08:01;;;;;;;5.50;1.90;;;23.00;52.10;;;;;;5022775;28;20241;-68
2022/01/19 13:13:18;;;;;;;2.40;1.40;;;23.00;51.80;;;;;;5015597;28;20639;-67
2022/01/19 13:15:59;;;;;;;4.20;1.75;;;23.00;51.80;;;;;;4998969;28;20198;-67
2022/01/19 13:18:43;;;;;;;4.57;1.55;;;23.00;51.70;;;;;;4999365;28;20180;-67
2022/01/19 13:21:16;;;;;;;4.78;1.77;;;23.00;51.50;;;;;;4999142;28;20789;-67
2022/01/19 13:23:59;;;;;;;3.35;1.85;;;23.00;51.60;;;;;;5015501;28;20263;-67
2022/01/19 13:26:36;;;;;;;5.22;1.95;;;23.00;51.60;;;;;;5015237;28;20199;-67
2022/01/19 13:29:23;;;;;;;2.97;2.10;;;23.00;51.60;;;;;;5015167;28;20198;-66
2022/01/19 13:32:17;;;;;;;2.90;1.92;;;23.00;51.60;;;;;;4999129;28;20203;-66
2022/01/19 13:34:59;;;;;;;5.10;2.00;;;23.00;51.40;;;;;;4998106;28;20191;-67
2022/01/19 13:37:51;;;;;;;2.80;1.65;;;23.00;51.40;;;;;;5023104;28;20195;-66
2022/01/19 13:40:25;;;;;;;3.13;1.70;;;23.00;51.40;;;;;;5025979;28;20221;-66
2022/01/19 13:42:56;;;;;;;4.55;1.95;;;23.00;51.40;;;;;;5018548;28;20191;-66
2022/01/19 13:45:35;;;;;;;8.73;2.10;;;23.10;51.50;;;;;;5052345;28;20182;-66
2022/01/19 13:50:54;;;;;;;6.10;1.92;;;23.10;51.60;;;;;;5052481;28;20678;-66
2022/01/19 13:53:37;;;;;;;3.08;1.70;;;23.10;51.60;;;;;;5018492;28;20186;-67
2022/01/19 13:56:10;;;;;;;4.28;1.70;;;23.00;51.60;;;;;;5034401;28;20178;-66
2022/01/19 13:58:46;;;;;;;9.43;2.13;;;23.00;51.80;;;;;;5034649;28;20528;-66
2022/01/19 14:01:22;;;;;;;4.82;2.05;;;23.00;52.50;;;;;;5018027;28;20206;-66
2022/01/19 14:03:57;;;;;;;3.03;1.63;;;23.10;52.10;;;;;;5034777;28;20179;-66
2022/01/19 14:06:26;;;;;;;3.50;2.25;;;23.10;52.10;;;;;;5016825;28;20202;-66
2022/01/19 14:09:14;;;;;;;2.58;1.95;;;23.10;52.10;;;;;;5036215;28;20178;-66
2022/01/19 14:11:43;;;;;;;6.10;2.10;;;23.10;52.00;;;;;;5021790;28;20206;-66
2022/01/19 14:14:21;;;;;;;4.75;1.92;;;23.10;52.60;;;;;;5036362;28;20183;-66
2022/01/19 14:16:50;;;;;;;5.45;2.20;;;23.10;52.10;;;;;;5018319;28;20193;-66
2022/01/19 14:19:28;;;;;;;6.00;2.17;;;23.00;52.10;;;;;;5018314;28;20198;-66
2022/01/19 14:22:03;;;;;;;5.72;2.08;;;23.00;52.20;;;;;;5018148;28;20222;-66
2022/01/19 14:24:44;;;;;;;8.98;2.30;;;23.00;52.30;;;;;;5001518;28;20638;-66
2022/01/19 14:27:31;;;;;;;4.68;3.13;;;23.10;52.40;;;;;;5017906;28;20593;-66
2022/01/19 14:30:08;;;;;;;4.70;2.60;;;23.10;52.50;;;;;;5001891;28;20183;-66
2022/01/19 14:32:41;;;;;;;6.32;2.30;;;23.10;52.50;;;;;;5018228;28;20585;-66
2022/01/19 14:35:28;;;;;;;6.90;2.47;;;23.10;52.50;;;;;;5018076;28;20193;-66
2022/01/19 14:38:24;;;;;;;3.03;1.98;;;23.10;52.50;;;;;;5008362;28;20190;-67
2022/01/19 14:40:58;;;;;;;4.63;2.00;;;23.20;52.60;;;;;;5017551;28;20223;-67
2022/01/19 14:43:39;;;;;;;9.32;1.70;;;23.20;52.00;;;;;;5001314;28;20191;-66
2022/01/19 14:46:10;;;;;;;3.13;2.20;;;23.00;51.80;;;;;;5017292;28;20207;-67
2022/01/19 14:48:46;;;;;;;3.72;2.58;;;23.00;51.80;;;;;;5034055;28;20186;-67
2022/01/19 14:51:17;;;;;;;3.05;2.10;;;23.00;51.60;;;;;;5017241;28;20207;-66
2022/01/19 14:53:43;;;;;;;3.60;2.50;;;23.00;51.50;;;;;;5017708;28;20187;-68
2022/01/19 14:56:08;;;;;;;2.83;1.95;;;23.00;51.40;;;;;;5033935;28;20228;-66